Time;durP1;ratioP1;P1;durP2;ratioP2;P2;SDS_P1;SDS_P2;PMS_P1;PMS_P2;Temp;Humidity;BMP_temperature;BMP_pressure;BME280_temperature;BME280_humidity;BME280_pressure;Samples;Min_cycle;Max_cycle;Signal;HPM_P1;HPM_P2
2023/04/29 00:00:03;;;;;;;72.47;39.85;;;9.70;99.90;;;;;;5053477;28;20420;-75
2023/04/29 00:02:29;;;;;;;58.30;34.45;;;9.70;99.90;;;;;;5053382;28;20024;-75
2023/04/29 00:04:55;;;;;;;62.60;35.42;;;9.70;99.90;;;;;;5053157;28;20025;-75
2023/04/29 00:07:21;;;;;;;60.40;33.97;;;9.70;99.90;;;;;;5053345;28;20029;-75
2023/04/29 00:09:46;;;;;;;63.15;33.95;;;9.70;99.90;;;;;;5053710;28;20428;-76
2023/04/29 00:12:12;;;;;;;61.28;33.28;;;9.70;99.90;;;;;;5052975;28;20234;-75
2023/04/29 00:14:37;;;;;;;55.58;32.22;;;9.60;99.90;;;;;;5053089;28;20049;-75
2023/04/29 00:17:03;;;;;;;57.50;32.38;;;9.60;99.90;;;;;;5053466;28;20465;-75
2023/04/29 00:19:28;;;;;;;53.15;30.70;;;9.60;99.90;;;;;;5053353;28;20064;-75
2023/04/29 00:21:54;;;;;;;53.90;30.25;;;9.60;99.90;;;;;;5053117;28;20033;-76
2023/04/29 00:24:19;;;;;;;52.28;30.70;;;9.60;99.90;;;;;;5052841;28;20029;-76
2023/04/29 00:26:45;;;;;;;51.40;29.33;;;9.60;99.90;;;;;;5053433;28;20465;-75
2023/04/29 00:29:11;;;;;;;51.05;29.85;;;9.60;99.90;;;;;;5053189;28;20044;-75
2023/04/29 00:31:37;;;;;;;51.00;30.42;;;9.60;99.90;;;;;;5053206;28;20028;-75
2023/04/29 00:34:02;;;;;;;50.72;29.20;;;9.50;99.90;;;;;;5053060;28;20033;-75
2023/04/29 00:36:28;;;;;;;49.92;28.30;;;9.50;99.90;;;;;;5052878;28;20029;-76
2023/04/29 00:38:54;;;;;;;51.97;28.58;;;9.50;99.90;;;;;;5053200;28;20496;-76
2023/04/29 00:41:20;;;;;;;51.65;27.90;;;9.50;99.90;;;;;;5052380;28;20535;-76
2023/04/29 00:43:45;;;;;;;55.70;29.08;;;9.40;99.90;;;;;;5053319;28;20124;-75
2023/04/29 00:46:11;;;;;;;54.15;28.35;;;9.50;99.90;;;;;;5052730;28;20444;-76
2023/04/29 00:48:36;;;;;;;51.08;27.08;;;9.40;99.90;;;;;;5059725;28;20029;-76
2023/04/29 00:51:04;;;;;;;53.30;26.95;;;9.50;99.90;;;;;;5070664;28;20036;-76
2023/04/29 00:53:30;;;;;;;53.13;27.45;;;9.40;99.90;;;;;;5070911;28;20048;-76
2023/04/29 00:55:55;;;;;;;54.72;27.67;;;9.40;99.90;;;;;;5071854;28;20029;-76
2023/04/29 00:58:22;;;;;;;54.03;28.60;;;9.50;99.90;;;;;;5071268;28;20055;-75
2023/04/29 01:00:48;;;;;;;49.97;26.63;;;9.40;99.90;;;;;;5074608;28;20362;-75
2023/04/29 01:03:14;;;;;;;56.03;28.95;;;9.40;99.90;;;;;;5075276;28;20032;-75
2023/04/29 01:05:40;;;;;;;54.72;27.67;;;9.40;99.90;;;;;;5075513;28;20021;-75
2023/04/29 01:08:57;;;;;;;57.13;29.90;;;9.40;99.90;;;;;;5075302;28;20049;-75
2023/04/29 01:11:33;;;;;;;48.80;26.08;;;9.40;99.90;;;;;;5039025;28;20039;-76
2023/04/29 01:14:02;;;;;;;54.17;29.00;;;9.40;99.90;;;;;;5075170;28;20040;-75
2023/04/29 01:16:46;;;;;;;54.35;28.48;;;9.40;99.90;;;;;;5075691;28;20032;-76
2023/04/29 01:19:39;;;;;;;56.28;28.52;;;9.40;99.90;;;;;;5076003;28;20044;-76
2023/04/29 01:22:05;;;;;;;57.10;28.85;;;9.40;99.90;;;;;;5075538;28;20051;-76
2023/04/29 01:24:31;;;;;;;53.35;27.00;;;9.40;99.90;;;;;;5075701;28;20028;-76
2023/04/29 01:27:08;;;;;;;58.78;29.40;;;9.40;99.90;;;;;;5076053;28;20164;-76
2023/04/29 01:29:48;;;;;;;57.95;28.10;;;9.50;99.90;;;;;;5075828;28;20304;-76
2023/04/29 01:32:20;;;;;;;63.80;29.38;;;9.40;99.90;;;;;;5075580;28;20052;-75
2023/04/29 01:34:59;;;;;;;55.00;27.50;;;9.40;99.90;;;;;;5076607;28;20109;-76
2023/04/29 01:37:36;;;;;;;50.72;24.73;;;9.40;99.90;;;;;;5075791;28;20033;-76
2023/04/29 01:40:13;;;;;;;58.58;27.15;;;9.50;99.90;;;;;;5076311;28;20037;-75
2023/04/29 01:42:45;;;;;;;57.10;27.92;;;9.40;99.90;;;;;;5076016;28;20086;-76
2023/04/29 01:45:15;;;;;;;59.13;27.27;;;9.40;99.90;;;;;;5075913;28;20023;-75
2023/04/29 01:47:41;;;;;;;57.97;26.30;;;9.40;99.90;;;;;;5076168;28;20033;-75
2023/04/29 01:50:08;;;;;;;53.25;25.60;;;9.40;99.90;;;;;;5075910;28;20025;-75
2023/04/29 01:52:33;;;;;;;48.60;25.77;;;9.40;99.90;;;;;;5075983;28;20037;-76
2023/04/29 01:54:59;;;;;;;58.67;25.70;;;9.40;99.90;;;;;;5075987;28;20060;-75
2023/04/29 01:57:24;;;;;;;53.22;25.67;;;9.40;99.90;;;;;;5075616;28;20044;-76
2023/04/29 01:59:50;;;;;;;53.63;26.70;;;9.40;99.90;;;;;;5075528;28;20037;-75
2023/04/29 02:02:19;;;;;;;53.10;26.15;;;9.40;99.90;;;;;;5069342;28;20026;-75
2023/04/29 02:04:45;;;;;;;55.97;24.70;;;9.40;99.90;;;;;;5064032;28;20032;-75
2023/04/29 02:07:11;;;;;;;57.80;26.00;;;9.30;99.90;;;;;;5069723;28;20055;-76
2023/04/29 02:09:36;;;;;;;61.55;27.30;;;9.40;99.90;;;;;;5071026;28;20028;-75
2023/04/29 02:12:03;;;;;;;61.28;27.45;;;9.30;99.90;;;;;;5063143;28;20040;-75
2023/04/29 02:14:29;;;;;;;63.13;29.20;;;9.30;99.90;;;;;;5074512;28;20041;-76
2023/04/29 02:16:54;;;;;;;47.15;24.13;;;9.30;99.90;;;;;;5075907;28;20050;-76
2023/04/29 02:19:20;;;;;;;57.00;27.58;;;9.30;99.90;;;;;;5074966;28;20045;-75
2023/04/29 02:21:45;;;;;;;62.92;28.02;;;9.30;99.90;;;;;;5067627;28;20047;-75
2023/04/29 02:24:11;;;;;;;63.78;27.67;;;9.30;99.90;;;;;;5053505;28;20079;-75
2023/04/29 02:26:37;;;;;;;64.10;27.90;;;9.20;99.90;;;;;;5046105;28;20021;-75
2023/04/29 02:29:02;;;;;;;63.42;29.92;;;9.20;99.90;;;;;;5043566;28;20025;-75
2023/04/29 02:31:28;;;;;;;59.63;28.27;;;9.20;99.90;;;;;;5049421;28;20070;-75
2023/04/29 02:33:54;;;;;;;58.63;28.48;;;9.20;99.90;;;;;;5053375;28;20033;-75
2023/04/29 02:36:20;;;;;;;64.72;27.05;;;9.20;99.90;;;;;;5052692;28;20104;-74
2023/04/29 02:38:45;;;;;;;61.03;28.05;;;9.20;99.90;;;;;;5056091;28;20122;-74
2023/04/29 02:41:16;;;;;;;63.05;28.67;;;9.20;99.90;;;;;;5053254;28;20029;-74
2023/04/29 02:43:43;;;;;;;65.55;29.10;;;9.20;99.90;;;;;;5053213;28;20025;-74
2023/04/29 02:46:09;;;;;;;62.63;27.60;;;9.20;99.90;;;;;;5052776;28;20025;-74
2023/04/29 02:48:35;;;;;;;59.22;27.70;;;9.20;99.90;;;;;;5052822;28;20473;-75
2023/04/29 02:51:01;;;;;;;59.28;29.02;;;9.20;99.90;;;;;;5052567;28;20020;-74
2023/04/29 02:53:26;;;;;;;62.75;28.08;;;9.20;99.90;;;;;;5052332;28;20033;-74
2023/04/29 02:55:52;;;;;;;61.58;28.58;;;9.20;99.90;;;;;;5053084;28;20472;-74
2023/04/29 02:58:17;;;;;;;59.13;27.85;;;9.20;99.90;;;;;;5052453;28;20029;-74
2023/04/29 03:00:43;;;;;;;64.28;28.35;;;9.20;99.90;;;;;;5052749;28;20380;-74
2023/04/29 03:03:09;;;;;;;60.15;28.60;;;9.20;99.90;;;;;;5051870;28;20024;-74
2023/04/29 03:05:35;;;;;;;70.55;30.83;;;9.20;99.90;;;;;;5052505;28;20115;-74
2023/04/29 03:08:01;;;;;;;64.38;27.98;;;9.20;99.90;;;;;;5051395;28;20112;-74
2023/04/29 03:10:27;;;;;;;62.25;28.15;;;9.20;99.90;;;;;;5046811;28;20378;-74
2023/04/29 03:12:52;;;;;;;61.80;28.77;;;9.20;99.90;;;;;;5047939;28;20035;-74
2023/04/29 03:15:18;;;;;;;67.75;28.25;;;9.20;99.90;;;;;;5032069;28;20045;-74
2023/04/29 03:17:45;;;;;;;60.88;27.52;;;9.20;99.90;;;;;;5036558;28;20044;-74
2023/04/29 03:20:11;;;;;;;56.47;27.15;;;9.20;99.90;;;;;;5051636;28;20079;-74
2023/04/29 03:22:36;;;;;;;61.70;28.15;;;9.20;99.90;;;;;;5051975;28;20386;-74
2023/04/29 03:25:02;;;;;;;60.58;29.50;;;9.20;99.90;;;;;;5052205;28;20029;-74
2023/04/29 03:27:28;;;;;;;60.00;27.17;;;9.30;99.90;;;;;;5051566;28;20040;-74
2023/04/29 03:29:53;;;;;;;66.90;28.65;;;9.30;99.90;;;;;;5052168;28;20033;-74
2023/04/29 03:32:19;;;;;;;60.40;27.63;;;9.30;99.90;;;;;;5051886;28;20017;-74
2023/04/29 03:34:44;;;;;;;60.42;27.38;;;9.30;99.90;;;;;;5051706;28;20048;-75
2023/04/29 03:37:10;;;;;;;52.80;27.60;;;9.30;99.90;;;;;;5051260;28;20028;-74
2023/04/29 03:39:36;;;;;;;59.28;27.77;;;9.30;99.90;;;;;;5053184;28;20033;-74
2023/04/29 03:42:01;;;;;;;60.63;27.42;;;9.30;99.90;;;;;;5051752;28;20025;-74
2023/04/29 03:44:28;;;;;;;55.80;27.80;;;9.30;99.90;;;;;;5051231;28;20485;-74
2023/04/29 03:46:53;;;;;;;62.50;28.58;;;9.30;99.90;;;;;;5051769;28;20029;-74
2023/04/29 03:49:19;;;;;;;57.40;28.30;;;9.30;99.90;;;;;;5051042;28;20029;-75
2023/04/29 03:51:45;;;;;;;58.67;27.88;;;9.30;99.90;;;;;;5051722;28;20021;-74
2023/04/29 03:54:11;;;;;;;61.08;27.52;;;9.30;99.90;;;;;;5051276;28;20186;-74
2023/04/29 03:56:37;;;;;;;61.65;30.83;;;9.30;99.90;;;;;;5051459;28;20419;-74
2023/04/29 03:59:03;;;;;;;59.25;29.25;;;9.30;99.90;;;;;;5051587;28;20040;-74
2023/04/29 04:01:28;;;;;;;57.08;28.77;;;9.30;99.90;;;;;;5051364;28;20068;-75
2023/04/29 04:03:54;;;;;;;57.35;28.85;;;9.30;99.90;;;;;;5051322;28;20037;-74
2023/04/29 04:06:19;;;;;;;63.92;31.08;;;9.30;99.90;;;;;;5051192;28;20100;-75
2023/04/29 04:08:45;;;;;;;63.03;29.80;;;9.20;99.90;;;;;;5051589;28;20462;-74
2023/04/29 04:11:13;;;;;;;67.20;30.92;;;9.30;99.90;;;;;;5050912;28;20070;-74
2023/04/29 04:13:45;;;;;;;57.78;30.85;;;9.20;99.90;;;;;;5051889;28;20036;-74
2023/04/29 04:16:21;;;;;;;61.75;30.40;;;9.30;99.90;;;;;;5052837;28;20135;-75
2023/04/29 04:21:32;;;;;;;60.08;28.00;;;9.30;99.90;;;;;;5055535;28;20362;-75
2023/04/29 04:23:57;;;;;;;58.97;28.73;;;9.30;99.90;;;;;;5072164;28;20111;-74
2023/04/29 04:26:23;;;;;;;61.45;29.05;;;9.30;99.90;;;;;;5068838;28;20099;-74
2023/04/29 04:28:48;;;;;;;56.38;29.23;;;9.30;99.90;;;;;;5071193;28;20488;-74
2023/04/29 04:31:14;;;;;;;54.35;27.80;;;9.30;99.90;;;;;;5070765;28;20039;-75
2023/04/29 04:33:42;;;;;;;57.88;28.13;;;9.30;99.90;;;;;;5071067;28;20024;-74
2023/04/29 04:36:08;;;;;;;57.42;29.17;;;9.30;99.90;;;;;;5067758;28;20027;-74
2023/04/29 04:38:33;;;;;;;53.90;27.90;;;9.30;99.90;;;;;;5075245;28;20131;-74
2023/04/29 04:40:59;;;;;;;57.60;28.08;;;9.30;99.90;;;;;;5074991;28;20024;-74
2023/04/29 04:43:24;;;;;;;54.17;27.42;;;9.30;99.90;;;;;;5074581;28;20021;-74
2023/04/29 04:45:50;;;;;;;54.63;27.25;;;9.30;99.90;;;;;;5054627;28;20021;-74
2023/04/29 04:48:16;;;;;;;58.95;27.27;;;9.30;99.90;;;;;;5054698;28;20033;-75
2023/04/29 04:50:42;;;;;;;57.47;27.75;;;9.40;99.90;;;;;;5063779;28;20527;-75
2023/04/29 04:53:07;;;;;;;54.22;26.02;;;9.40;99.90;;;;;;5074476;28;20071;-74
2023/04/29 04:55:33;;;;;;;49.72;26.60;;;9.40;99.90;;;;;;5074897;28;20029;-74
2023/04/29 04:57:59;;;;;;;48.78;26.30;;;9.40;99.90;;;;;;5070239;28;20028;-74
2023/04/29 05:00:24;;;;;;;47.17;25.38;;;9.40;99.90;;;;;;5061879;28;20032;-75
2023/04/29 05:02:50;;;;;;;47.30;25.88;;;9.40;99.90;;;;;;5074339;28;20548;-74
2023/04/29 05:05:15;;;;;;;50.15;26.50;;;9.40;99.90;;;;;;5074180;28;20029;-74
2023/04/29 05:07:41;;;;;;;51.50;26.15;;;9.40;99.90;;;;;;5056857;28;20067;-74
2023/04/29 05:10:07;;;;;;;48.42;24.65;;;9.50;99.90;;;;;;5059026;28;20465;-74
2023/04/29 05:12:34;;;;;;;52.95;26.83;;;9.50;99.90;;;;;;5074163;28;20020;-74
2023/04/29 05:15:00;;;;;;;50.10;26.08;;;9.50;99.90;;;;;;5074099;28;20102;-74
2023/04/29 05:17:25;;;;;;;51.95;25.48;;;9.50;99.90;;;;;;5073797;28;20020;-75
2023/04/29 05:19:51;;;;;;;46.47;25.45;;;9.50;99.90;;;;;;5063631;28;20047;-74
2023/04/29 05:22:17;;;;;;;44.72;25.17;;;9.50;99.90;;;;;;5073901;28;20031;-75
2023/04/29 05:24:42;;;;;;;47.45;24.83;;;9.50;99.90;;;;;;5074125;28;20024;-74
2023/04/29 05:27:08;;;;;;;41.30;23.98;;;9.50;99.90;;;;;;5073874;28;20062;-75
2023/04/29 05:29:33;;;;;;;42.33;24.52;;;9.50;99.90;;;;;;5074150;28;20146;-75
2023/04/29 05:31:59;;;;;;;42.35;24.33;;;9.50;99.90;;;;;;5053819;28;20021;-75
2023/04/29 05:34:24;;;;;;;48.45;26.13;;;9.50;99.90;;;;;;5053484;28;20489;-74
2023/04/29 05:36:50;;;;;;;43.10;24.23;;;9.40;99.90;;;;;;5064824;28;20090;-75
2023/04/29 05:39:16;;;;;;;45.03;23.38;;;9.50;99.90;;;;;;5073577;28;20147;-75
2023/04/29 05:41:42;;;;;;;45.65;24.50;;;9.50;99.90;;;;;;5073663;28;20077;-74
2023/04/29 05:44:07;;;;;;;44.67;25.42;;;9.50;99.90;;;;;;5055851;28;20115;-74
2023/04/29 05:46:33;;;;;;;47.63;24.48;;;9.60;99.90;;;;;;5073617;28;20028;-74
2023/04/29 05:48:58;;;;;;;51.85;25.90;;;9.70;99.90;;;;;;5073758;28;20031;-75
2023/04/29 05:51:24;;;;;;;45.85;25.17;;;9.80;99.90;;;;;;5073190;28;20017;-74
2023/04/29 05:53:50;;;;;;;43.60;25.58;;;9.80;99.90;;;;;;5071183;28;20029;-75
2023/04/29 05:56:16;;;;;;;45.20;25.80;;;9.90;99.90;;;;;;5053508;28;20023;-74
2023/04/29 05:58:42;;;;;;;42.58;24.00;;;9.90;99.90;;;;;;5063585;28;20040;-74
2023/04/29 06:01:08;;;;;;;47.88;26.00;;;10.00;99.90;;;;;;5073075;28;20021;-75
2023/04/29 06:03:36;;;;;;;43.78;24.83;;;10.10;99.90;;;;;;5073978;28;20415;-74
2023/04/29 06:06:02;;;;;;;44.05;25.10;;;10.10;99.90;;;;;;5069497;28;20396;-75
2023/04/29 06:08:28;;;;;;;41.47;24.85;;;10.20;99.90;;;;;;5052807;28;20021;-74
2023/04/29 06:10:54;;;;;;;38.95;24.33;;;10.20;99.90;;;;;;5053501;28;20051;-75
2023/04/29 06:13:20;;;;;;;38.13;24.00;;;10.30;99.90;;;;;;5052784;28;20500;-75
2023/04/29 06:15:45;;;;;;;41.85;24.92;;;10.30;99.90;;;;;;5054724;28;20596;-75
2023/04/29 06:18:11;;;;;;;38.92;22.63;;;10.40;99.90;;;;;;5072666;28;20025;-76
2023/04/29 06:20:36;;;;;;;38.60;23.92;;;10.50;99.90;;;;;;5063544;28;20029;-75
2023/04/29 06:23:02;;;;;;;37.10;23.17;;;10.50;99.90;;;;;;5047058;28;20013;-75
2023/04/29 06:25:28;;;;;;;36.72;22.58;;;10.50;99.90;;;;;;5072756;28;20082;-75
2023/04/29 06:27:53;;;;;;;33.30;21.58;;;10.50;99.90;;;;;;5072970;28;20027;-75
2023/04/29 06:30:19;;;;;;;36.28;22.20;;;10.50;99.90;;;;;;5072459;28;20020;-75
2023/04/29 06:32:44;;;;;;;36.45;21.17;;;10.60;99.90;;;;;;5063375;28;20017;-75
2023/04/29 06:35:10;;;;;;;36.03;22.55;;;10.60;99.90;;;;;;5052389;28;20559;-75
2023/04/29 06:37:35;;;;;;;34.17;21.08;;;10.60;99.90;;;;;;5053141;28;20021;-75
2023/04/29 06:40:01;;;;;;;31.88;20.63;;;10.70;99.90;;;;;;5058280;28;20417;-75
2023/04/29 06:42:27;;;;;;;34.35;20.73;;;10.70;99.90;;;;;;5072561;28;20028;-75
2023/04/29 06:44:53;;;;;;;35.13;22.35;;;10.80;99.90;;;;;;5058281;28;20166;-75
2023/04/29 06:47:19;;;;;;;34.25;21.73;;;10.80;99.90;;;;;;5071416;28;20673;-75
2023/04/29 06:49:44;;;;;;;37.47;22.25;;;10.80;99.90;;;;;;5072445;28;20025;-75
2023/04/29 06:52:10;;;;;;;34.72;21.63;;;10.80;99.90;;;;;;5072087;28;20031;-75
2023/04/29 06:54:35;;;;;;;34.42;22.08;;;10.80;99.90;;;;;;5061635;28;20061;-75
2023/04/29 06:57:01;;;;;;;31.60;20.45;;;10.90;99.90;;;;;;5051974;28;20028;-75
2023/04/29 06:59:27;;;;;;;32.20;20.10;;;10.90;99.90;;;;;;5051683;28;20048;-75
2023/04/29 07:01:52;;;;;;;30.58;20.25;;;10.90;99.90;;;;;;5038946;28;20027;-76
2023/04/29 07:04:18;;;;;;;37.75;20.90;;;11.00;99.90;;;;;;5071194;28;20028;-75
2023/04/29 07:06:45;;;;;;;29.27;21.05;;;11.00;99.90;;;;;;5044565;28;20441;-75
2023/04/29 07:09:12;;;;;;;35.83;20.27;;;11.10;99.90;;;;;;5052032;28;20039;-75
2023/04/29 07:11:38;;;;;;;30.45;20.00;;;11.10;99.90;;;;;;5051929;28;20522;-75
2023/04/29 07:14:04;;;;;;;34.88;20.13;;;11.20;99.90;;;;;;5052187;28;20059;-75
2023/04/29 07:16:29;;;;;;;29.73;18.52;;;11.20;99.90;;;;;;5051376;28;20080;-75
2023/04/29 07:18:55;;;;;;;32.38;20.50;;;11.30;99.90;;;;;;5065528;28;20102;-76
2023/04/29 07:21:20;;;;;;;30.83;18.92;;;11.30;99.90;;;;;;5053904;28;20103;-75
2023/04/29 07:23:46;;;;;;;33.83;20.73;;;11.40;99.90;;;;;;5051980;28;20021;-75
2023/04/29 07:26:14;;;;;;;30.48;19.27;;;11.40;99.90;;;;;;5041849;28;20469;-75
2023/04/29 07:28:41;;;;;;;29.35;19.45;;;11.50;99.90;;;;;;5072125;28;20028;-75
2023/04/29 07:31:06;;;;;;;29.40;18.75;;;11.50;99.90;;;;;;5056716;28;20385;-76
2023/04/29 07:33:33;;;;;;;29.55;18.38;;;11.60;99.90;;;;;;5070356;28;20029;-74
2023/04/29 07:35:59;;;;;;;31.98;20.48;;;11.60;99.90;;;;;;5071919;28;20021;-74
2023/04/29 07:38:25;;;;;;;28.35;17.73;;;11.70;99.90;;;;;;5071392;28;20036;-74
2023/04/29 07:40:51;;;;;;;26.80;18.30;;;11.70;99.90;;;;;;5071531;28;20071;-74
2023/04/29 07:43:16;;;;;;;30.92;18.42;;;11.80;99.90;;;;;;5053050;28;20043;-75
2023/04/29 07:45:42;;;;;;;28.02;17.75;;;11.90;99.90;;;;;;5051150;28;20024;-76
2023/04/29 07:48:08;;;;;;;26.75;17.83;;;11.90;99.90;;;;;;5057863;28;20055;-76
2023/04/29 07:50:35;;;;;;;27.70;18.20;;;12.00;99.90;;;;;;5071767;28;20055;-75
2023/04/29 07:53:01;;;;;;;26.40;16.73;;;12.10;99.90;;;;;;5071449;28;20024;-75
2023/04/29 07:55:28;;;;;;;28.65;17.23;;;12.30;99.90;;;;;;5069868;28;20024;-75
2023/04/29 07:57:54;;;;;;;29.17;19.00;;;12.40;99.90;;;;;;5056407;28;20048;-75
2023/04/29 08:00:20;;;;;;;32.92;19.50;;;12.50;99.90;;;;;;5071057;28;20104;-75
2023/04/29 08:02:49;;;;;;;27.58;17.65;;;12.50;99.90;;;;;;5053547;28;20059;-75
2023/04/29 08:05:15;;;;;;;28.60;17.30;;;12.70;99.90;;;;;;5033251;28;20559;-76
2023/04/29 08:07:41;;;;;;;29.00;16.92;;;12.70;99.90;;;;;;5067129;28;20024;-75
2023/04/29 08:10:07;;;;;;;27.35;15.95;;;12.70;99.90;;;;;;5059479;28;20032;-76
2023/04/29 08:12:33;;;;;;;32.05;16.92;;;12.70;99.90;;;;;;5075726;28;20055;-75
2023/04/29 08:14:58;;;;;;;21.23;14.88;;;12.80;99.90;;;;;;5075098;28;20079;-76
2023/04/29 08:17:24;;;;;;;23.88;14.80;;;12.80;99.90;;;;;;5074264;28;20031;-76
2023/04/29 08:19:49;;;;;;;21.77;14.77;;;12.80;99.90;;;;;;5057469;28;20043;-76
2023/04/29 08:22:15;;;;;;;27.70;14.77;;;12.90;99.90;;;;;;5075019;28;20025;-76
2023/04/29 08:24:41;;;;;;;23.42;14.00;;;12.90;99.90;;;;;;5075344;28;20071;-75
2023/04/29 08:27:07;;;;;;;23.08;15.15;;;13.00;99.90;;;;;;5074999;28;20100;-75
2023/04/29 08:29:33;;;;;;;24.58;15.65;;;13.00;99.90;;;;;;5069112;28;20096;-75
2023/04/29 08:31:59;;;;;;;23.27;14.23;;;13.20;99.90;;;;;;5075345;28;20035;-76
2023/04/29 08:34:25;;;;;;;21.27;13.13;;;13.30;99.90;;;;;;5075121;28;20028;-75
2023/04/29 08:36:51;;;;;;;20.25;13.43;;;13.40;99.90;;;;;;5075300;28;20101;-76
2023/04/29 08:39:16;;;;;;;19.42;12.45;;;13.40;99.90;;;;;;5074479;28;20477;-76
2023/04/29 08:41:50;;;;;;;18.85;12.10;;;13.30;99.90;;;;;;5054953;28;20461;-75
2023/04/29 08:44:16;;;;;;;16.02;11.43;;;13.30;99.90;;;;;;5054619;28;20425;-75
2023/04/29 08:46:44;;;;;;;22.52;13.05;;;13.30;99.90;;;;;;5055049;28;20108;-75
2023/04/29 08:49:10;;;;;;;21.60;13.07;;;13.30;99.90;;;;;;5054488;28;20029;-76
2023/04/29 08:51:35;;;;;;;19.95;11.82;;;13.30;99.90;;;;;;5054717;28;20063;-75
2023/04/29 08:54:01;;;;;;;22.10;12.20;;;13.30;99.90;;;;;;5054659;28;20114;-75
2023/04/29 08:56:29;;;;;;;19.60;10.88;;;13.20;99.90;;;;;;5062016;28;20426;-75
2023/04/29 08:58:57;;;;;;;18.83;11.50;;;13.30;99.90;;;;;;5065888;28;20496;-75
2023/04/29 09:01:35;;;;;;;18.00;10.93;;;13.30;99.90;;;;;;5074004;28;20043;-74
2023/04/29 09:04:18;;;;;;;15.43;9.93;;;13.40;99.90;;;;;;5016754;28;20482;-75
2023/04/29 09:06:45;;;;;;;16.27;10.70;;;13.40;99.90;;;;;;5053544;28;20166;-75
2023/04/29 09:09:13;;;;;;;16.50;10.00;;;13.30;99.90;;;;;;5074071;28;20086;-74
2023/04/29 09:11:39;;;;;;;15.20;9.55;;;13.50;99.90;;;;;;5056660;28;20404;-75
2023/04/29 09:14:05;;;;;;;17.00;10.95;;;13.70;99.90;;;;;;5054240;28;20017;-75
2023/04/29 09:16:30;;;;;;;18.95;11.07;;;13.80;99.90;;;;;;5061428;28;20451;-75
2023/04/29 09:18:56;;;;;;;17.85;10.52;;;13.70;99.90;;;;;;5074353;28;20079;-75
2023/04/29 09:21:26;;;;;;;16.27;9.68;;;13.70;99.90;;;;;;5073615;28;20033;-74
2023/04/29 09:23:57;;;;;;;13.15;8.75;;;13.80;99.90;;;;;;5072457;28;20029;-75
2023/04/29 09:26:23;;;;;;;15.40;9.05;;;13.90;99.90;;;;;;5073628;28;20055;-75
2023/04/29 09:29:10;;;;;;;19.95;8.80;;;14.00;99.90;;;;;;5074437;28;20064;-74
2023/04/29 09:31:39;;;;;;;22.88;9.30;;;14.20;99.90;;;;;;5074163;28;20042;-74
2023/04/29 09:34:05;;;;;;;16.95;9.32;;;14.40;99.90;;;;;;5073971;28;20476;-75
2023/04/29 09:36:38;;;;;;;11.73;8.60;;;14.40;99.90;;;;;;5066677;28;20031;-75
2023/04/29 09:39:11;;;;;;;14.32;8.98;;;14.40;99.90;;;;;;5053871;28;20037;-74
2023/04/29 09:41:54;;;;;;;15.32;9.35;;;14.40;99.90;;;;;;5052439;28;20036;-75
2023/04/29 09:44:30;;;;;;;14.02;8.15;;;14.40;99.90;;;;;;5073613;28;20385;-75
2023/04/29 09:47:03;;;;;;;15.02;8.05;;;14.40;99.90;;;;;;5073394;28;20035;-75
2023/04/29 09:49:40;;;;;;;15.63;8.20;;;14.40;99.90;;;;;;5073232;28;20033;-75
2023/04/29 09:52:13;;;;;;;16.70;8.00;;;14.60;99.90;;;;;;5073773;28;20024;-75
2023/04/29 09:54:40;;;;;;;17.38;8.23;;;14.70;99.90;;;;;;5073355;28;20052;-75
2023/04/29 09:57:08;;;;;;;15.27;8.10;;;14.70;99.90;;;;;;5073542;28;20403;-75
2023/04/29 09:59:36;;;;;;;16.00;8.70;;;14.60;99.90;;;;;;5073230;28;20032;-75
2023/04/29 10:02:15;;;;;;;13.57;8.68;;;14.60;99.90;;;;;;5056400;28;20446;-74
2023/04/29 10:04:43;;;;;;;14.15;8.65;;;14.60;99.90;;;;;;5073763;28;20435;-74
2023/04/29 10:07:15;;;;;;;14.20;8.40;;;14.60;99.90;;;;;;5073024;28;20052;-75
2023/04/29 10:09:40;;;;;;;10.90;7.50;;;14.70;99.90;;;;;;5073206;28;20480;-75
2023/04/29 10:12:07;;;;;;;12.68;8.05;;;14.80;99.90;;;;;;5072670;28;20036;-75
2023/04/29 10:14:41;;;;;;;11.07;7.60;;;14.90;99.90;;;;;;5073088;28;20024;-74
2023/04/29 10:17:19;;;;;;;15.60;8.82;;;15.10;99.90;;;;;;5073114;28;20032;-74
2023/04/29 10:20:07;;;;;;;12.18;7.35;;;15.10;99.90;;;;;;5037226;28;20158;-75
2023/04/29 10:22:51;;;;;;;11.23;7.43;;;15.10;99.90;;;;;;5042871;28;20410;-76
2023/04/29 10:25:18;;;;;;;11.15;7.22;;;15.10;99.90;;;;;;5072715;28;20033;-75
2023/04/29 10:27:45;;;;;;;9.20;6.75;;;15.10;99.90;;;;;;5061360;28;20021;-75
2023/04/29 10:30:16;;;;;;;11.00;6.43;;;15.20;99.90;;;;;;5052633;28;20028;-75
2023/04/29 10:32:43;;;;;;;10.10;6.18;;;15.30;99.90;;;;;;5071780;28;20023;-75
2023/04/29 10:35:11;;;;;;;10.65;5.78;;;15.40;99.90;;;;;;5072205;28;20592;-75
2023/04/29 10:37:37;;;;;;;12.52;6.90;;;15.50;99.90;;;;;;5072483;28;20385;-75
2023/04/29 10:40:16;;;;;;;10.80;6.45;;;15.50;99.90;;;;;;5059244;28;20032;-75
2023/04/29 10:42:46;;;;;;;7.78;5.10;;;15.60;99.90;;;;;;5071042;28;20485;-75
2023/04/29 10:45:27;;;;;;;8.32;4.97;;;15.60;99.90;;;;;;5064684;28;20029;-75
2023/04/29 10:48:01;;;;;;;7.50;4.38;;;15.70;99.90;;;;;;5072936;28;20012;-75
2023/04/29 10:50:31;;;;;;;6.40;4.00;;;15.90;99.90;;;;;;5065361;28;20053;-75
2023/04/29 10:53:06;;;;;;;7.00;4.75;;;15.90;99.90;;;;;;5034559;28;20494;-75
2023/04/29 10:55:36;;;;;;;6.00;3.97;;;16.00;99.90;;;;;;5053693;28;20084;-74
2023/04/29 10:58:03;;;;;;;8.02;4.50;;;16.00;99.90;;;;;;5071940;28;20013;-74
2023/04/29 11:00:31;;;;;;;7.15;4.78;;;16.00;99.90;;;;;;5068184;28;20033;-75
2023/04/29 11:03:01;;;;;;;6.25;4.80;;;15.90;99.90;;;;;;5072068;28;20099;-75
2023/04/29 11:05:36;;;;;;;10.60;5.65;;;16.00;99.90;;;;;;5072121;28;20024;-74
2023/04/29 11:08:21;;;;;;;10.63;5.00;;;16.20;99.90;;;;;;5072406;28;20392;-75
2023/04/29 11:10:47;;;;;;;6.50;4.60;;;16.20;99.90;;;;;;5072197;28;20052;-75
2023/04/29 11:13:29;;;;;;;9.77;4.97;;;16.30;99.90;;;;;;5071564;28;20506;-75
2023/04/29 11:16:08;;;;;;;8.88;4.63;;;16.30;99.90;;;;;;5051982;28;20187;-75
2023/04/29 11:18:36;;;;;;;7.95;4.75;;;16.40;99.90;;;;;;5063028;28;20123;-74
2023/04/29 11:21:10;;;;;;;10.38;4.80;;;16.40;99.90;;;;;;5071692;28;20028;-73
2023/04/29 11:23:41;;;;;;;8.68;4.88;;;16.30;99.90;;;;;;5054401;28;20067;-74
2023/04/29 11:26:06;;;;;;;8.80;4.45;;;16.30;99.90;;;;;;5071961;28;20064;-74
2023/04/29 11:28:32;;;;;;;4.90;3.83;;;16.40;99.90;;;;;;5071118;28;20429;-74
2023/04/29 11:30:58;;;;;;;8.02;4.03;;;16.40;99.90;;;;;;5071891;28;20107;-74
2023/04/29 11:33:26;;;;;;;5.30;3.47;;;16.50;99.90;;;;;;5053201;28;20027;-74
2023/04/29 11:35:55;;;;;;;8.38;4.05;;;16.60;99.90;;;;;;5071441;28;20063;-74
2023/04/29 11:38:29;;;;;;;7.50;3.58;;;16.80;99.90;;;;;;5071297;28;20086;-77
2023/04/29 11:40:56;;;;;;;4.97;3.65;;;16.90;99.90;;;;;;5060429;28;20024;-74
2023/04/29 11:43:23;;;;;;;6.45;3.72;;;16.90;99.90;;;;;;5071278;28;20086;-74
2023/04/29 11:45:49;;;;;;;6.03;3.60;;;17.00;99.90;;;;;;5066946;28;20060;-77
2023/04/29 11:48:23;;;;;;;6.53;3.35;;;16.90;99.90;;;;;;5051052;28;20017;-74
2023/04/29 11:50:55;;;;;;;6.20;3.10;;;16.80;99.90;;;;;;5051505;28;20020;-74
2023/04/29 11:53:23;;;;;;;;;;;16.90;99.90;;;;;;5052786;28;20104;-75
2023/04/29 11:55:49;;;;;;;8.43;4.65;;;17.20;99.90;;;;;;5071547;28;19905;-75
2023/04/29 11:58:15;;;;;;;7.30;4.28;;;17.30;99.90;;;;;;5063099;28;20354;-75
2023/04/29 12:00:41;;;;;;;6.70;4.10;;;17.30;99.90;;;;;;5051121;28;20033;-75
2023/04/29 12:03:14;;;;;;;8.98;4.63;;;17.20;99.90;;;;;;5051397;28;20028;-75
2023/04/29 12:05:51;;;;;;;5.93;4.03;;;17.10;99.90;;;;;;5051788;28;20036;-75
2023/04/29 12:08:20;;;;;;;6.90;4.65;;;17.10;99.90;;;;;;5051361;28;20064;-75
2023/04/29 12:10:47;;;;;;;8.48;4.50;;;17.00;99.90;;;;;;5051317;28;20025;-75
2023/04/29 12:13:13;;;;;;;6.80;4.60;;;16.90;99.80;;;;;;5067227;28;20069;-76
2023/04/29 12:15:38;;;;;;;7.15;3.78;;;16.90;99.90;;;;;;5051070;28;20049;-75
2023/04/29 12:18:04;;;;;;;8.90;4.15;;;17.00;99.70;;;;;;5051474;28;20077;-75
2023/04/29 12:20:30;;;;;;;7.18;4.13;;;17.10;99.00;;;;;;5050753;28;20057;-75
2023/04/29 12:22:58;;;;;;;6.30;4.00;;;17.20;99.20;;;;;;5065407;28;20027;-75
2023/04/29 12:25:29;;;;;;;8.63;3.85;;;17.50;98.70;;;;;;5071084;28;20030;-75
2023/04/29 12:27:58;;;;;;;5.60;2.85;;;17.50;97.90;;;;;;5064685;28;20023;-75
2023/04/29 12:30:24;;;;;;;4.80;3.05;;;17.70;98.20;;;;;;5050734;28;20017;-74
2023/04/29 12:32:51;;;;;;;7.78;3.20;;;17.90;97.90;;;;;;5065424;28;20025;-75
2023/04/29 12:35:17;;;;;;;7.65;3.85;;;17.90;97.50;;;;;;5070816;28;20435;-75
2023/04/29 12:37:42;;;;;;;4.85;3.00;;;17.90;97.30;;;;;;5053115;28;20021;-75
2023/04/29 12:40:14;;;;;;;5.20;3.47;;;17.90;97.00;;;;;;5062586;28;20041;-75